Home > Products > Valid Products > TAF

000
FTUS42 KJAX 271720
TAFCRG
TAF
KCRG 271720Z 2718/2818 08013G20KT P6SM BKN040 BKN080
     FM280100 04004KT P6SM SCT040 SCT080
     FM281200 03010KT P6SM VCSH BKN030 BKN060=



000
FTUS42 KJAX 271720
TAFJAX
TAF
KJAX 271720Z 2718/2818 08014G21KT P6SM BKN040 BKN080
     FM280100 04002KT P6SM SCT040 SCT080
     FM281300 03010KT P6SM VCSH BKN030 BKN060=



000
FTUS42 KJAX 271720
TAFSSI
TAF
KSSI 271720Z 2718/2818 07012G18KT P6SM BKN040 BKN080
     FM280100 05006KT P6SM SCT040 SCT080
     FM281200 04012KT P6SM VCSH BKN030 BKN060=



000
FTUS42 KJAX 271720
TAFGNV
TAF
KGNV 271720Z 2718/2818 10010G15KT P6SM BKN040 BKN080
     FM280100 04002KT P6SM SCT250
     FM281500 05008KT P6SM BKN035 BKN070=



000
FTUS42 KJAX 271120
TAFSSI
TAF
KSSI 271120Z 2712/2812 10006KT P6SM SCT040
     FM271500 09012G18KT P6SM SCT030 BKN060
     FM272200 08011G16KT P6SM VCSH SCT025=



000
FTUS42 KJAX 271120
TAFJAX
TAF
KJAX 271120Z 2712/2812 00000KT P6SM FEW030
     FM271300 08008KT P6SM SCT040
     FM271500 09012G19KT P6SM BKN060
     FM280000 07008KT P6SM SCT030 SCT060
     FM280400 00000KT P6SM SCT025=



000
FTUS42 KJAX 271120
TAFCRG
TAF
KCRG 271120Z 2712/2812 00000KT P6SM FEW030
     FM271300 08009KT P6SM SCT040
     FM271500 09013G20KT P6SM BKN060
     FM280000 07009KT P6SM SCT030 SCT060
     FM280400 06003KT P6SM VCSH SCT025 BKN050=



000
FTUS42 KJAX 271120
TAFGNV
TAF
KGNV 271120Z 2712/2812 06003KT P6SM FEW040
     FM271500 09009G15KT P6SM SCT060
     FM280200 00000KT P6SM FEW060=



000
FTUS42 KJAX 270552
TAFJAX
TAF
KJAX 270552Z 2706/2806 09003KT P6SM FEW040
     FM271300 07008KT P6SM FEW040
     FM271600 09011G18KT P6SM SCT030 BKN060
     FM280000 06007KT P6SM SCT030 SCT060=



000
FTUS42 KJAX 270552
TAFCRG
TAF
KCRG 270552Z 2706/2806 09005KT P6SM FEW040
     FM271300 07009KT P6SM SCT040
     FM271600 09012G19KT P6SM SCT030 BKN060
     FM280000 06008KT P6SM SCT030 SCT060=



000
FTUS42 KJAX 270552
TAFGNV
TAF
KGNV 270552Z 2706/2806 00000KT P6SM FEW030 FEW080
     FM271300 08005KT P6SM FEW040
     FM271600 09010G15KT P6SM SCT030 SCT060
     FM280000 07006KT P6SM FEW060=



000
FTUS42 KJAX 270552
TAFSSI
TAF
KSSI 270552Z 2706/2806 12007KT P6SM SKC
     FM271300 08009KT P6SM FEW040
     FM271600 09012G20KT P6SM SCT030 BKN060
     FM280000 08010G15KT P6SM VCSH BKN030=



000
FTUS42 KJAX 252320
TAFCRG
TAF
KCRG 252320Z 2600/2624 12008KT P6SM FEW250
     FM260100 VRB03KT P6SM FEW250
     FM261500 09010G18KT P6SM SCT040=



000
FTUS42 KJAX 252320
TAFJAX
TAF
KJAX 252320Z 2600/2624 12008KT P6SM FEW050 SCT250
     FM260200 VRB03KT P6SM FEW250
     FM261500 09014KT P6SM SCT040=



000
FTUS42 KJAX 252320
TAFGNV
TAF
KGNV 252320Z 2600/2624 10006KT P6SM SCT250
     FM260100 VRB03KT P6SM FEW250
     FM261500 07011KT P6SM SCT040=



000
FTUS42 KJAX 252320
TAFSSI
TAF
KSSI 252320Z 2600/2624 14008KT P6SM FEW250
     FM260600 15004KT P6SM FEW250
     FM261500 11011KT P6SM FEW040=



000
FTUS42 KJAX 251720
TAFCRG
TAF
KCRG 251720Z 2518/2618 12010G15KT P6SM FEW250
     FM260100 14002KT P6SM FEW250
     FM261500 09010G15KT P6SM SCT040=



000
FTUS42 KJAX 251720
TAFSSI
TAF
KSSI 251720Z 2518/2618 13010G15KT P6SM FEW250
     FM260100 15004KT P6SM FEW250
     FM261500 11010G15KT P6SM FEW040=



000
FTUS42 KJAX 251720
TAFGNV
TAF
KGNV 251720Z 2518/2618 12009KT P6SM SCT050 SCT250
     FM260100 13002KT P6SM FEW250
     FM261500 09008KT P6SM SCT040=



000
FTUS42 KJAX 251720
TAFJAX
TAF
KJAX 251720Z 2518/2618 12010G15KT P6SM FEW050 SCT250
     FM260100 14002KT P6SM FEW250
     FM261500 09010G15KT P6SM SCT040=



000
FTUS42 KJAX 251120
TAFJAX
TAF
KJAX 251120Z 2512/2612 VRB02KT P6SM FEW090 BKN250
     FM251400 15005KT P6SM FEW250
     FM251700 11010KT P6SM FEW060 SCT250
     FM260100 12003KT P6SM FEW250=



000
FTUS42 KJAX 251120
TAFSSI
TAF
KSSI 251120Z 2512/2612 18005KT P6SM FEW080 BKN250
     FM251500 12010KT P6SM FEW250
     FM260200 16005KT P6SM FEW250=



000
FTUS42 KJAX 251120
TAFGNV
TAF
KGNV 251120Z 2512/2612 12004KT P6SM FEW080 SCT250
     FM251500 11009KT P6SM SCT060
     FM260100 11005KT P6SM FEW250=



000
FTUS42 KJAX 251120
TAFCRG
TAF
KCRG 251120Z 2512/2612 VRB02KT P6SM FEW090 BKN250
     FM251300 15005KT P6SM FEW250
     FM251700 10010KT P6SM FEW060 SCT250
     FM260100 13003KT P6SM FEW250=



000
FTUS42 KJAX 242320
TAFSSI
TAF
KSSI 242320Z 2500/2524 14010KT P6SM SCT250
     FM250300 16005KT P6SM SKC
     FM251500 12010KT P6SM SKC=



000
FTUS42 KJAX 242320
TAFJAX
TAF
KJAX 242320Z 2500/2524 13008KT P6SM FEW080 BKN250
     FM250200 VRB03KT P6SM SCT250
     FM251500 10010KT P6SM FEW050 FEW250=



000
FTUS42 KJAX 242320
TAFGNV
TAF
KGNV 242320Z 2500/2524 10008KT P6SM SCT250
     FM250200 VRB03KT P6SM FEW250
     FM251500 11010KT P6SM SCT060=



000
FTUS42 KJAX 242320
TAFCRG
TAF
KCRG 242320Z 2500/2524 13008KT P6SM SCT250
     FM250200 VRB03KT P6SM SCT250
     FM251500 10010KT P6SM FEW050 FEW250=



    US Dept of Commerce
    National Oceanic and Atmospheric Administration
    National Weather Service
    1325 East West Highway
    Silver Spring, MD 20910
    Page Author: NWS Internet Services Team
Disclaimer
Information Quality
Credits
Glossary
Privacy Policy
Freedom of Information Act (FOIA)
About Us
Career Opportunities